Palm Beach Shores, Florida
Current Conditions -  °F | °C
As of 4:53 AM on Friday 19 Dec 2014 (Local Time) from KPBI Reporting Station
Scattered Clouds Scattered Clouds  
Wind Chill: 56°   Ceiling: Unl
Heat Index: 56°   Visibility: 10mi
Dew Point: 51°   Wind: 3mph
Humidity: 84%   Direction: 320°NW
Pressure: 30.07"   Gusts: NA
Location:  26.7789°N, 80.0745°W
Report Text: KPBI 190953Z 32003KT 10SM SCT030 SCT250 13/11 A3007 RMK AO2 SLP182 T01330106
Loading
Personal Weather Stations






























Interactive Weather Map New forecast layout! Learn more

10-Day Weather Forecast

Advertisements
Track Severe Weather on mobile